Time;durP1;ratioP1;P1;durP2;ratioP2;P2;SDS_P1;SDS_P2;PMS_P1;PMS_P2;Temp;Humidity;BMP_temperature;BMP_pressure;BME280_temperature;BME280_humidity;BME280_pressure;Samples;Min_cycle;Max_cycle;Signal;HPM_P1;HPM_P2
2021/12/29 00:00:59;;;;;;;23.08;6.45;;;10.30;99.90;;;;;;5032518;28;20360;-68
2021/12/29 00:03:25;;;;;;;16.27;4.50;;;10.30;99.90;;;;;;5032299;28;20029;-72
2021/12/29 00:05:51;;;;;;;25.10;5.70;;;10.30;99.90;;;;;;5032605;28;20046;-69
2021/12/29 00:08:17;;;;;;;23.13;6.22;;;10.30;99.90;;;;;;5031920;28;20100;-69
2021/12/29 00:10:43;;;;;;;27.23;5.95;;;10.30;99.90;;;;;;5032330;28;20036;-70
2021/12/29 00:13:09;;;;;;;27.55;6.43;;;10.30;99.90;;;;;;5032016;28;20111;-70
2021/12/29 00:15:36;;;;;;;15.07;4.85;;;10.30;99.90;;;;;;5032513;28;20033;-70
2021/12/29 00:18:02;;;;;;;23.17;6.43;;;10.30;99.90;;;;;;5032539;28;20029;-69
2021/12/29 00:20:31;;;;;;;27.50;8.02;;;10.30;99.90;;;;;;5032487;28;20060;-71
2021/12/29 00:23:03;;;;;;;27.30;7.22;;;10.30;99.90;;;;;;5032051;28;20044;-71
2021/12/29 00:25:29;;;;;;;26.00;6.85;;;10.30;99.90;;;;;;5032379;28;20451;-70
2021/12/29 00:27:55;;;;;;;23.63;7.05;;;10.30;99.90;;;;;;5032291;28;20025;-69
2021/12/29 00:30:22;;;;;;;31.50;8.30;;;10.30;99.90;;;;;;5032400;28;20086;-67
2021/12/29 00:32:48;;;;;;;20.45;6.25;;;10.30;99.90;;;;;;5032242;28;20125;-70
2021/12/29 00:35:14;;;;;;;24.33;7.18;;;10.30;99.90;;;;;;5031816;28;20554;-68
2021/12/29 00:37:41;;;;;;;22.23;6.03;;;10.30;99.90;;;;;;5032331;28;20112;-71
2021/12/29 00:40:09;;;;;;;17.50;5.90;;;10.30;99.90;;;;;;5032322;28;20733;-68
2021/12/29 00:42:35;;;;;;;23.52;6.30;;;10.30;99.90;;;;;;5030715;28;20025;-70
2021/12/29 00:45:00;;;;;;;20.52;5.75;;;10.30;99.90;;;;;;5032145;28;20040;-68
2021/12/29 00:47:30;;;;;;;25.55;6.53;;;10.30;99.90;;;;;;5032147;28;20026;-69
2021/12/29 00:49:56;;;;;;;22.73;6.13;;;10.30;99.90;;;;;;5031879;28;20025;-68
2021/12/29 00:52:22;;;;;;;25.58;6.75;;;10.30;99.90;;;;;;5030752;28;20439;-70
2021/12/29 00:54:47;;;;;;;28.48;7.43;;;10.30;99.90;;;;;;5031938;28;20033;-71
2021/12/29 00:57:13;;;;;;;29.50;6.80;;;10.30;99.90;;;;;;5032008;28;20026;-70
2021/12/29 00:59:39;;;;;;;24.17;6.82;;;10.40;99.90;;;;;;5032013;28;20067;-70
2021/12/29 01:02:05;;;;;;;30.58;8.32;;;10.40;99.90;;;;;;5031905;28;20087;-70
2021/12/29 01:04:31;;;;;;;34.67;8.10;;;10.40;99.90;;;;;;5031779;28;20033;-71
2021/12/29 01:06:56;;;;;;;29.88;7.78;;;10.40;99.90;;;;;;5031855;28;20524;-70
2021/12/29 01:09:22;;;;;;;29.33;7.53;;;10.40;99.90;;;;;;5031938;28;20029;-71
2021/12/29 01:11:48;;;;;;;30.42;9.23;;;10.40;99.90;;;;;;5035032;28;20405;-71
2021/12/29 01:14:17;;;;;;;28.63;8.18;;;10.40;99.90;;;;;;5035501;28;20120;-70
2021/12/29 01:16:44;;;;;;;25.63;7.50;;;10.40;99.90;;;;;;5035469;28;20030;-69
2021/12/29 01:19:18;;;;;;;25.48;8.27;;;10.40;99.90;;;;;;5035429;28;20454;-70
2021/12/29 01:21:47;;;;;;;31.77;8.98;;;10.40;99.90;;;;;;5035240;28;20148;-70
2021/12/29 01:24:13;;;;;;;27.67;7.30;;;10.40;99.90;;;;;;5035379;28;20033;-69
2021/12/29 01:26:42;;;;;;;38.28;10.00;;;10.40;99.90;;;;;;5035048;28;20462;-69
2021/12/29 01:29:08;;;;;;;33.25;8.93;;;10.40;99.90;;;;;;5035438;28;20036;-70
2021/12/29 01:31:33;;;;;;;25.63;8.23;;;10.50;99.90;;;;;;5035265;28;20037;-70
2021/12/29 01:33:59;;;;;;;24.60;8.18;;;10.40;99.90;;;;;;5035206;28;20033;-71
2021/12/29 01:36:28;;;;;;;29.17;8.25;;;10.50;99.90;;;;;;5035191;28;20109;-71
2021/12/29 01:38:54;;;;;;;31.92;9.70;;;10.50;99.90;;;;;;5035159;28;20032;-70
2021/12/29 01:41:20;;;;;;;26.42;7.60;;;10.50;99.90;;;;;;5034841;28;20029;-71
2021/12/29 01:43:45;;;;;;;22.90;7.40;;;10.50;99.90;;;;;;5034967;28;20037;-71
2021/12/29 01:46:14;;;;;;;27.75;8.10;;;10.40;99.90;;;;;;5035063;28;20034;-71
2021/12/29 01:48:39;;;;;;;33.25;8.80;;;10.50;99.90;;;;;;5033524;28;20029;-70
2021/12/29 01:51:05;;;;;;;34.28;9.02;;;10.50;99.90;;;;;;5034796;28;20064;-70
2021/12/29 01:53:33;;;;;;;37.17;9.25;;;10.50;99.90;;;;;;5034919;28;20450;-72
2021/12/29 01:55:59;;;;;;;32.03;8.43;;;10.40;99.90;;;;;;5034803;28;20034;-71
2021/12/29 01:58:25;;;;;;;32.63;8.27;;;10.40;99.90;;;;;;5034636;28;20032;-71
2021/12/29 02:00:53;;;;;;;36.15;9.68;;;10.40;99.90;;;;;;5034670;28;20029;-71
2021/12/29 02:03:19;;;;;;;39.75;9.15;;;10.40;99.90;;;;;;5034452;28;20053;-71
2021/12/29 02:05:45;;;;;;;31.88;8.23;;;10.50;99.90;;;;;;5033198;28;20026;-70
2021/12/29 02:08:23;;;;;;;26.30;7.75;;;10.50;99.90;;;;;;5034577;28;20040;-71
2021/12/29 02:10:50;;;;;;;36.75;8.07;;;10.50;99.90;;;;;;5033183;28;20033;-69
2021/12/29 02:13:15;;;;;;;26.58;7.43;;;10.50;99.90;;;;;;5033976;28;20046;-71
2021/12/29 02:15:41;;;;;;;31.17;6.65;;;10.50;99.90;;;;;;5033014;28;20036;-71
2021/12/29 02:18:15;;;;;;;32.35;7.07;;;10.60;99.90;;;;;;5034665;28;20498;-72
2021/12/29 02:20:47;;;;;;;27.83;6.55;;;10.50;99.90;;;;;;5034272;28;20033;-72
2021/12/29 02:23:24;;;;;;;28.40;6.65;;;10.60;99.90;;;;;;5034380;28;20447;-70
2021/12/29 02:25:54;;;;;;;22.38;6.20;;;10.60;99.90;;;;;;5033968;28;20144;-71
2021/12/29 02:28:29;;;;;;;26.25;6.28;;;10.60;99.90;;;;;;5034304;28;20036;-70
2021/12/29 02:31:02;;;;;;;26.30;6.85;;;10.60;99.90;;;;;;5034152;28;20113;-71
2021/12/29 02:33:34;;;;;;;20.92;5.68;;;10.60;99.90;;;;;;5033820;28;20025;-70
2021/12/29 02:36:02;;;;;;;23.10;5.88;;;10.60;99.90;;;;;;5034267;28;20026;-72
2021/12/29 02:38:32;;;;;;;27.23;4.60;;;10.60;99.90;;;;;;5033456;28;20044;-70
2021/12/29 02:41:02;;;;;;;24.63;5.40;;;10.60;99.90;;;;;;5033875;28;20029;-71
2021/12/29 02:43:28;;;;;;;26.67;4.78;;;10.60;99.90;;;;;;5033629;28;20048;-72
2021/12/29 02:46:01;;;;;;;20.58;3.72;;;10.60;99.90;;;;;;5033938;28;20029;-71
2021/12/29 02:48:34;;;;;;;20.10;3.85;;;10.60;99.90;;;;;;5033797;28;20023;-70
2021/12/29 02:51:01;;;;;;;20.55;3.90;;;10.60;99.90;;;;;;5034024;28;20036;-71
2021/12/29 02:53:28;;;;;;;21.27;3.53;;;10.60;99.90;;;;;;5033510;28;20398;-71
2021/12/29 02:55:54;;;;;;;18.33;3.50;;;10.60;99.90;;;;;;5033999;28;20026;-70
2021/12/29 02:58:22;;;;;;;23.73;4.15;;;10.60;99.90;;;;;;5033632;28;20108;-70
2021/12/29 03:00:49;;;;;;;19.52;3.38;;;10.70;99.90;;;;;;5032095;28;20051;-71
2021/12/29 03:03:19;;;;;;;19.90;3.72;;;10.60;99.90;;;;;;5033419;28;20045;-71
2021/12/29 03:05:45;;;;;;;25.05;3.13;;;10.60;99.90;;;;;;5033362;28;20032;-71
2021/12/29 03:08:15;;;;;;;22.30;3.80;;;10.60;99.90;;;;;;5033243;28;20034;-71
2021/12/29 03:10:42;;;;;;;20.63;4.35;;;10.60;99.90;;;;;;5033302;28;20067;-70
2021/12/29 03:13:08;;;;;;;25.65;3.72;;;10.60;99.90;;;;;;5032642;28;20060;-71
2021/12/29 03:15:35;;;;;;;22.98;4.65;;;10.50;99.90;;;;;;5033396;28;20030;-70
2021/12/29 03:18:11;;;;;;;20.80;4.15;;;10.50;99.90;;;;;;5032870;28;20056;-71
2021/12/29 03:20:36;;;;;;;23.17;5.10;;;10.50;99.90;;;;;;5032906;28;20025;-71
2021/12/29 03:23:02;;;;;;;24.73;3.38;;;10.40;99.90;;;;;;5031790;28;20359;-71
2021/12/29 03:25:28;;;;;;;22.02;3.83;;;10.40;99.90;;;;;;5033269;28;20421;-70
2021/12/29 03:27:58;;;;;;;30.70;4.47;;;10.40;99.90;;;;;;5032777;28;20025;-72
2021/12/29 03:30:29;;;;;;;25.38;3.95;;;10.40;99.90;;;;;;5032746;28;20029;-69
2021/12/29 03:33:05;;;;;;;15.23;3.25;;;10.40;99.90;;;;;;5032759;28;20026;-71
2021/12/29 03:35:38;;;;;;;20.33;4.55;;;10.40;99.90;;;;;;5033034;28;20032;-70
2021/12/29 03:38:05;;;;;;;19.58;3.00;;;10.40;99.90;;;;;;5033006;28;20029;-71
2021/12/29 03:40:35;;;;;;;21.92;4.18;;;10.40;99.90;;;;;;5033041;28;20087;-70
2021/12/29 03:43:01;;;;;;;21.48;3.85;;;10.30;99.90;;;;;;5032230;28;20052;-71
2021/12/29 03:45:27;;;;;;;28.73;4.28;;;10.30;99.90;;;;;;5032783;28;20029;-71
2021/12/29 03:47:52;;;;;;;21.20;3.55;;;10.40;99.90;;;;;;5032649;28;20043;-69
2021/12/29 03:50:18;;;;;;;18.05;3.30;;;10.40;99.90;;;;;;5032968;28;20363;-71
2021/12/29 03:52:44;;;;;;;18.58;3.33;;;10.40;99.90;;;;;;5032820;28;20033;-70
2021/12/29 03:55:10;;;;;;;16.10;2.42;;;10.40;99.90;;;;;;5032530;28;20083;-70
2021/12/29 03:57:35;;;;;;;23.95;4.03;;;10.40;99.90;;;;;;5032380;28;20466;-70
2021/12/29 04:00:14;;;;;;;17.73;3.70;;;10.40;99.90;;;;;;5031299;28;20028;-70
2021/12/29 04:02:41;;;;;;;20.90;3.45;;;10.50;99.90;;;;;;5032264;28;20033;-71
2021/12/29 04:05:09;;;;;;;18.67;3.28;;;10.40;99.90;;;;;;5032687;28;20076;-71
2021/12/29 04:07:35;;;;;;;19.58;2.63;;;10.40;99.90;;;;;;5032671;28;20030;-70
2021/12/29 04:10:01;;;;;;;18.50;2.88;;;10.40;99.90;;;;;;5031942;28;20029;-71
2021/12/29 04:12:26;;;;;;;19.13;3.33;;;10.40;99.90;;;;;;5032381;28;20502;-71
2021/12/29 04:14:52;;;;;;;17.33;2.30;;;10.40;99.90;;;;;;5032417;28;20034;-71
2021/12/29 04:17:24;;;;;;;17.70;2.90;;;10.40;99.90;;;;;;5032413;28;20025;-72
2021/12/29 04:22:34;;;;;;;25.40;3.30;;;10.30;99.90;;;;;;5032522;28;19911;-72
2021/12/29 04:24:59;;;;;;;13.50;2.97;;;10.30;99.90;;;;;;5032076;28;20021;-72
2021/12/29 04:27:26;;;;;;;20.10;2.80;;;10.30;99.90;;;;;;5032401;28;20410;-70
2021/12/29 04:29:52;;;;;;;23.15;3.25;;;10.30;99.90;;;;;;5032373;28;20041;-71
2021/12/29 04:32:18;;;;;;;26.50;3.00;;;10.30;99.90;;;;;;5032059;28;20053;-73
2021/12/29 04:34:44;;;;;;;33.05;3.35;;;10.30;99.90;;;;;;5032784;28;20037;-71
2021/12/29 04:37:10;;;;;;;15.43;2.70;;;10.30;99.90;;;;;;5030772;28;20113;-71
2021/12/29 04:39:35;;;;;;;24.08;3.00;;;10.30;99.90;;;;;;5031961;28;20029;-71
2021/12/29 04:42:01;;;;;;;23.77;3.45;;;10.30;99.90;;;;;;5031852;28;20148;-70
2021/12/29 04:44:26;;;;;;;30.08;3.05;;;10.30;99.90;;;;;;5032084;28;20167;-71
2021/12/29 04:46:54;;;;;;;26.05;3.05;;;10.30;99.90;;;;;;5035667;28;20104;-72
2021/12/29 04:49:28;;;;;;;25.65;4.47;;;10.30;99.90;;;;;;5034662;28;20029;-70
2021/12/29 04:52:03;;;;;;;27.80;3.60;;;10.30;99.90;;;;;;5034638;28;20040;-72
2021/12/29 04:54:30;;;;;;;23.15;3.55;;;10.30;99.90;;;;;;5035975;28;20025;-72
2021/12/29 04:56:56;;;;;;;23.60;4.22;;;10.30;99.90;;;;;;5036185;28;20037;-72
2021/12/29 04:59:24;;;;;;;27.83;4.28;;;10.30;99.90;;;;;;5036103;28;20028;-72
2021/12/29 05:01:49;;;;;;;26.50;4.10;;;10.30;99.90;;;;;;5035843;28;20022;-71
2021/12/29 05:04:34;;;;;;;28.90;4.30;;;10.30;99.90;;;;;;5035671;28;20045;-71
2021/12/29 05:09:46;;;;;;;24.92;4.72;;;10.20;99.90;;;;;;5035988;28;20040;-70
2021/12/29 05:12:12;;;;;;;27.92;4.28;;;10.20;99.90;;;;;;5035280;28;20044;-70
2021/12/29 05:14:38;;;;;;;24.65;3.80;;;10.20;99.90;;;;;;5035231;28;20057;-70
2021/12/29 05:17:05;;;;;;;26.90;3.67;;;10.20;99.90;;;;;;5035607;28;20061;-72
2021/12/29 05:19:32;;;;;;;22.88;3.65;;;10.20;99.90;;;;;;5035573;28;20029;-70
2021/12/29 05:21:58;;;;;;;23.27;3.75;;;10.30;99.90;;;;;;5035655;28;20043;-71
2021/12/29 05:24:24;;;;;;;23.33;3.63;;;10.30;99.90;;;;;;5033840;28;20398;-72
2021/12/29 05:26:49;;;;;;;24.88;4.05;;;10.30;99.90;;;;;;5035516;28;20029;-71
2021/12/29 05:29:15;;;;;;;23.35;3.17;;;10.30;99.90;;;;;;5035277;28;20021;-71
2021/12/29 05:31:41;;;;;;;25.33;4.10;;;10.30;99.90;;;;;;5034975;28;20437;-72
2021/12/29 05:34:07;;;;;;;28.65;4.38;;;10.30;99.90;;;;;;5035142;28;20030;-71
2021/12/29 05:36:32;;;;;;;16.80;3.60;;;10.30;99.90;;;;;;5035178;28;20033;-72
2021/12/29 05:38:58;;;;;;;19.83;3.60;;;10.30;99.90;;;;;;5034996;28;20032;-72
2021/12/29 05:41:24;;;;;;;22.30;3.58;;;10.30;99.90;;;;;;5035184;28;20037;-71
2021/12/29 05:43:50;;;;;;;22.00;3.42;;;10.30;99.90;;;;;;5035017;28;20030;-70
2021/12/29 05:46:17;;;;;;;17.55;3.55;;;10.30;99.90;;;;;;5034774;28;20463;-71
2021/12/29 05:48:42;;;;;;;25.65;3.70;;;10.30;99.90;;;;;;5034887;28;20038;-71
2021/12/29 05:51:11;;;;;;;19.00;3.03;;;10.30;99.90;;;;;;5034853;28;20068;-71
2021/12/29 05:53:37;;;;;;;28.90;4.78;;;10.30;99.90;;;;;;5035090;28;20044;-70
2021/12/29 05:56:03;;;;;;;25.45;3.80;;;10.20;99.90;;;;;;5034315;28;20017;-71
2021/12/29 05:58:29;;;;;;;19.35;4.05;;;10.30;99.90;;;;;;5034922;28;20060;-72
2021/12/29 06:00:54;;;;;;;25.20;3.33;;;10.20;99.90;;;;;;5034907;28;20033;-70
2021/12/29 06:03:20;;;;;;;22.95;4.97;;;10.20;99.90;;;;;;5034668;28;20032;-72
2021/12/29 06:05:46;;;;;;;23.50;3.58;;;10.20;99.90;;;;;;5034859;28;20044;-72
2021/12/29 06:08:11;;;;;;;28.30;4.15;;;10.30;99.90;;;;;;5034369;28;20037;-72
2021/12/29 06:10:37;;;;;;;28.88;4.82;;;10.30;99.90;;;;;;5034861;28;20040;-70
2021/12/29 06:13:03;;;;;;;21.52;4.57;;;10.30;99.90;;;;;;5034430;28;20041;-72
2021/12/29 06:15:29;;;;;;;15.90;4.43;;;10.30;99.90;;;;;;5034226;28;20097;-72
2021/12/29 06:17:55;;;;;;;20.05;3.55;;;10.30;99.90;;;;;;5034994;28;20049;-70
2021/12/29 06:20:20;;;;;;;16.23;4.10;;;10.30;99.90;;;;;;5034631;28;20029;-71
2021/12/29 06:22:46;;;;;;;20.88;3.50;;;10.30;99.90;;;;;;5034581;28;20032;-72
2021/12/29 06:25:14;;;;;;;20.23;4.07;;;10.30;99.90;;;;;;5034685;28;20042;-72
2021/12/29 06:27:40;;;;;;;25.65;4.00;;;10.30;99.90;;;;;;5034063;28;20021;-72
2021/12/29 06:30:08;;;;;;;13.63;3.22;;;10.30;99.90;;;;;;5033941;28;20447;-70
2021/12/29 06:32:34;;;;;;;19.77;3.45;;;10.30;99.90;;;;;;5034266;28;20056;-71
2021/12/29 06:34:59;;;;;;;11.48;3.53;;;10.30;99.90;;;;;;5034342;28;20033;-71
2021/12/29 06:37:25;;;;;;;14.98;3.35;;;10.30;99.90;;;;;;5034074;28;20526;-72
2021/12/29 06:39:51;;;;;;;16.20;3.95;;;10.20;99.90;;;;;;5034205;28;20026;-71
2021/12/29 06:42:18;;;;;;;21.65;3.55;;;10.30;99.90;;;;;;5034239;28;20477;-71
2021/12/29 06:44:45;;;;;;;21.20;3.40;;;10.30;99.90;;;;;;5033931;28;20041;-72
2021/12/29 06:47:11;;;;;;;22.42;3.85;;;10.30;99.90;;;;;;5034104;28;20068;-70
2021/12/29 06:49:37;;;;;;;17.85;3.80;;;10.30;99.90;;;;;;5034132;28;20067;-71
2021/12/29 06:52:04;;;;;;;15.50;4.18;;;10.30;99.90;;;;;;5033987;28;20072;-71
2021/12/29 06:54:31;;;;;;;18.55;4.40;;;10.30;99.90;;;;;;5033908;28;20026;-71
2021/12/29 06:56:57;;;;;;;16.73;3.28;;;10.40;99.90;;;;;;5033794;28;20021;-70
2021/12/29 06:59:22;;;;;;;17.80;3.50;;;10.30;99.90;;;;;;5033780;28;20432;-71
2021/12/29 07:01:48;;;;;;;16.80;3.55;;;10.30;99.90;;;;;;5032251;28;20028;-72
2021/12/29 07:04:14;;;;;;;21.58;3.80;;;10.30;99.90;;;;;;5033124;28;20042;-72
2021/12/29 07:06:39;;;;;;;15.35;3.40;;;10.40;99.90;;;;;;5033523;28;20095;-71
2021/12/29 07:09:05;;;;;;;18.55;3.28;;;10.40;99.90;;;;;;5032642;28;20451;-72
2021/12/29 07:11:31;;;;;;;21.67;4.03;;;10.40;99.90;;;;;;5033181;28;20025;-71
2021/12/29 07:14:00;;;;;;;21.85;4.25;;;10.40;99.90;;;;;;5033441;28;20049;-71
2021/12/29 07:16:25;;;;;;;19.15;3.53;;;10.50;99.90;;;;;;5033485;28;20018;-72
2021/12/29 07:18:51;;;;;;;15.65;3.00;;;10.50;99.90;;;;;;5032049;28;20087;-72
2021/12/29 07:21:17;;;;;;;15.90;2.65;;;10.40;99.90;;;;;;5033408;28;20013;-72
2021/12/29 07:23:42;;;;;;;17.05;2.50;;;10.40;99.90;;;;;;5033303;28;20038;-71
2021/12/29 07:26:08;;;;;;;16.30;2.70;;;10.40;99.90;;;;;;5033439;28;20044;-71
2021/12/29 07:28:34;;;;;;;13.73;2.80;;;10.40;99.90;;;;;;5031946;28;20033;-72
2021/12/29 07:30:59;;;;;;;9.80;2.58;;;10.40;99.90;;;;;;5033069;28;20049;-70
2021/12/29 07:33:25;;;;;;;9.25;2.25;;;10.40;99.90;;;;;;5033100;28;20029;-71
2021/12/29 07:35:50;;;;;;;8.07;2.22;;;10.40;99.90;;;;;;5033242;28;20374;-72
2021/12/29 07:38:16;;;;;;;7.78;2.35;;;10.40;99.90;;;;;;5031209;28;20477;-73
2021/12/29 07:40:42;;;;;;;12.63;2.50;;;10.40;99.90;;;;;;5031205;28;20074;-71
2021/12/29 07:43:08;;;;;;;15.02;2.60;;;10.30;99.90;;;;;;5032938;28;20077;-72
2021/12/29 07:45:34;;;;;;;11.70;2.55;;;10.30;99.90;;;;;;5033066;28;20120;-71
2021/12/29 07:48:03;;;;;;;13.00;2.50;;;10.30;99.90;;;;;;5033004;28;20025;-71
2021/12/29 07:50:28;;;;;;;10.90;2.20;;;10.30;99.90;;;;;;5032876;28;20032;-71
2021/12/29 07:52:54;;;;;;;4.13;1.85;;;10.30;99.90;;;;;;5032780;28;20030;-70
2021/12/29 07:55:21;;;;;;;6.00;2.00;;;10.40;99.90;;;;;;5032913;28;20104;-72
2021/12/29 07:57:47;;;;;;;9.30;2.38;;;10.40;99.90;;;;;;5032831;28;20029;-72
2021/12/29 08:00:14;;;;;;;8.82;1.95;;;10.40;99.90;;;;;;5032629;28;20025;-70
2021/12/29 08:02:43;;;;;;;11.02;2.00;;;10.40;99.90;;;;;;5031589;28;20025;-71
2021/12/29 08:05:10;;;;;;;9.57;2.92;;;10.40;99.90;;;;;;5032557;28;20025;-71
2021/12/29 08:07:36;;;;;;;10.38;2.33;;;10.40;99.90;;;;;;5032386;28;20044;-70
2021/12/29 08:10:03;;;;;;;8.20;2.67;;;10.40;99.90;;;;;;5032540;28;20107;-71
2021/12/29 08:12:29;;;;;;;13.65;3.28;;;10.40;99.90;;;;;;5032133;28;20030;-71
2021/12/29 08:14:57;;;;;;;17.45;3.13;;;10.40;99.90;;;;;;5032609;28;20459;-71
2021/12/29 08:17:23;;;;;;;11.82;3.53;;;10.40;99.90;;;;;;5031909;28;20513;-70
2021/12/29 08:19:50;;;;;;;14.63;2.97;;;10.40;99.90;;;;;;5033979;28;20109;-70
2021/12/29 08:22:16;;;;;;;12.25;4.03;;;10.40;99.90;;;;;;5034637;28;20033;-70
2021/12/29 08:24:42;;;;;;;14.68;3.13;;;10.30;99.90;;;;;;5036324;28;20037;-69
2021/12/29 08:27:09;;;;;;;14.05;3.47;;;10.30;99.90;;;;;;5036039;28;20083;-70
2021/12/29 08:29:35;;;;;;;16.33;3.72;;;10.30;99.90;;;;;;5035154;28;20100;-71
2021/12/29 08:32:00;;;;;;;11.75;3.15;;;10.30;99.90;;;;;;5036588;28;20406;-71
2021/12/29 08:34:26;;;;;;;12.65;3.30;;;10.30;99.90;;;;;;5036533;28;20105;-70
2021/12/29 08:36:52;;;;;;;18.05;3.22;;;10.30;99.90;;;;;;5034155;28;20034;-71
2021/12/29 08:39:18;;;;;;;18.08;5.88;;;10.30;99.90;;;;;;5036244;28;20508;-71
2021/12/29 08:41:49;;;;;;;15.65;4.03;;;10.30;99.90;;;;;;5036161;28;20036;-71
2021/12/29 08:44:15;;;;;;;14.45;3.67;;;10.30;99.90;;;;;;5035605;28;20042;-70
2021/12/29 08:46:41;;;;;;;12.00;4.20;;;10.30;99.90;;;;;;5036216;28;20032;-71
2021/12/29 08:49:07;;;;;;;16.15;4.07;;;10.30;99.90;;;;;;5035627;28;20025;-70
2021/12/29 08:51:32;;;;;;;14.45;3.92;;;10.30;99.90;;;;;;5036074;28;20371;-74
2021/12/29 08:53:59;;;;;;;14.65;4.18;;;10.30;99.90;;;;;;5036253;28;20443;-72
2021/12/29 08:56:25;;;;;;;12.40;3.97;;;10.30;99.90;;;;;;5034791;28;20421;-73
2021/12/29 08:58:52;;;;;;;10.93;3.97;;;10.40;99.90;;;;;;5036239;28;20029;-74
2021/12/29 09:01:19;;;;;;;13.00;4.43;;;10.30;99.90;;;;;;5034365;28;20030;-74
2021/12/29 09:03:44;;;;;;;21.15;4.18;;;10.40;99.90;;;;;;5035649;28;20393;-73
2021/12/29 09:06:11;;;;;;;19.67;4.13;;;10.30;99.90;;;;;;5035336;28;20100;-73
2021/12/29 09:08:37;;;;;;;12.57;3.95;;;10.30;99.90;;;;;;5035607;28;20052;-72
2021/12/29 09:11:04;;;;;;;11.63;3.72;;;10.30;99.90;;;;;;5035750;28;20037;-73
2021/12/29 09:13:29;;;;;;;14.43;4.15;;;10.30;99.90;;;;;;5033919;28;20049;-75
2021/12/29 09:15:57;;;;;;;12.32;4.20;;;10.30;99.90;;;;;;5035876;28;20021;-72
2021/12/29 09:18:28;;;;;;;11.45;4.95;;;10.20;99.90;;;;;;5035373;28;20029;-73
2021/12/29 09:20:55;;;;;;;10.53;3.63;;;10.30;99.90;;;;;;5035355;28;20028;-73
2021/12/29 09:23:21;;;;;;;12.65;4.72;;;10.30;99.90;;;;;;5035470;28;20281;-73
2021/12/29 09:25:48;;;;;;;16.85;4.63;;;10.30;99.90;;;;;;5035232;28;20026;-76
2021/12/29 09:28:17;;;;;;;15.00;4.20;;;10.30;99.90;;;;;;5035570;28;20033;-73
2021/12/29 09:30:46;;;;;;;10.48;4.03;;;10.30;99.90;;;;;;5034714;28;20033;-75
2021/12/29 09:33:13;;;;;;;16.40;4.70;;;10.30;99.90;;;;;;5035206;28;20025;-76
2021/12/29 09:35:39;;;;;;;15.07;4.32;;;10.30;99.90;;;;;;5034888;28;20028;-75
2021/12/29 09:38:07;;;;;;;17.90;5.47;;;10.30;99.90;;;;;;5035171;28;20446;-75
2021/12/29 09:40:34;;;;;;;15.52;4.40;;;10.30;99.90;;;;;;5034625;28;20055;-71
2021/12/29 09:43:00;;;;;;;15.95;5.15;;;10.40;99.90;;;;;;5035152;28;20041;-72
2021/12/29 09:45:27;;;;;;;14.38;5.35;;;10.30;99.90;;;;;;5033397;28;20025;-73
2021/12/29 09:47:55;;;;;;;13.82;5.30;;;10.40;99.90;;;;;;5035102;28;20025;-73
2021/12/29 09:50:21;;;;;;;15.52;4.30;;;10.30;99.90;;;;;;5035062;28;20383;-71
2021/12/29 09:52:48;;;;;;;16.38;5.00;;;10.30;99.90;;;;;;5034447;28;20439;-73
2021/12/29 09:55:16;;;;;;;20.77;5.43;;;10.30;99.90;;;;;;5034499;28;20433;-72
2021/12/29 09:57:45;;;;;;;11.43;4.50;;;10.30;99.90;;;;;;5033133;28;20105;-73
2021/12/29 10:00:41;;;;;;;17.05;4.50;;;10.20;99.90;;;;;;5034781;28;20029;-72
2021/12/29 10:03:09;;;;;;;13.13;4.78;;;10.20;99.90;;;;;;5034913;28;20117;-73
2021/12/29 10:05:37;;;;;;;13.02;5.68;;;10.10;99.90;;;;;;5034287;28;20100;-74
2021/12/29 10:08:07;;;;;;;12.70;3.80;;;10.10;99.90;;;;;;5034570;28;20038;-73
2021/12/29 10:10:35;;;;;;;17.85;7.30;;;10.10;99.90;;;;;;5033481;28;20041;-74
2021/12/29 10:13:01;;;;;;;15.38;5.80;;;10.10;99.90;;;;;;5033706;28;20524;-74
2021/12/29 10:15:33;;;;;;;16.55;5.15;;;10.10;99.90;;;;;;5033062;28;20025;-76
2021/12/29 10:18:10;;;;;;;14.70;5.75;;;10.20;99.90;;;;;;5034280;28;20057;-73
2021/12/29 10:20:48;;;;;;;17.35;6.25;;;10.20;99.90;;;;;;5034049;28;20064;-75
2021/12/29 10:23:28;;;;;;;16.52;6.28;;;10.20;99.90;;;;;;5034031;28;20099;-73
2021/12/29 10:25:56;;;;;;;16.52;6.25;;;10.30;99.90;;;;;;5034586;28;20047;-75
2021/12/29 10:28:29;;;;;;;12.48;5.93;;;10.30;99.90;;;;;;5033972;28;20033;-76
2021/12/29 10:31:23;;;;;;;21.98;7.68;;;10.30;99.90;;;;;;5032052;28;20453;-75
2021/12/29 10:33:54;;;;;;;18.08;7.13;;;10.30;99.90;;;;;;5033967;28;20025;-73
2021/12/29 10:36:26;;;;;;;18.02;7.57;;;10.30;99.90;;;;;;5034076;28;20025;-73
2021/12/29 10:39:12;;;;;;;;;;;10.30;99.90;;;;;;5032815;28;20025;-74
2021/12/29 10:41:55;;;;;;;13.15;6.40;;;10.30;99.90;;;;;;5033120;28;20343;-75
2021/12/29 10:44:27;;;;;;;15.20;6.05;;;10.30;99.90;;;;;;5033003;28;20038;-75
2021/12/29 10:46:56;;;;;;;19.05;6.78;;;10.20;99.90;;;;;;5032573;28;20057;-75
2021/12/29 10:49:24;;;;;;;19.15;7.07;;;10.20;99.90;;;;;;5034178;28;20100;-73
2021/12/29 10:51:50;;;;;;;16.90;6.80;;;10.20;99.90;;;;;;5033822;28;20037;-73
2021/12/29 10:54:20;;;;;;;15.85;7.00;;;10.20;99.90;;;;;;5033552;28;20025;-77
2021/12/29 10:57:08;;;;;;;17.95;7.90;;;10.20;99.90;;;;;;5033450;28;20036;-74
2021/12/29 10:59:37;;;;;;;16.38;6.80;;;10.20;99.90;;;;;;5034066;28;20068;-77
2021/12/29 11:02:06;;;;;;;14.57;5.82;;;10.20;99.90;;;;;;5033620;28;20065;-74
2021/12/29 11:04:32;;;;;;;19.35;7.60;;;10.30;99.90;;;;;;5032889;28;20051;-74
2021/12/29 11:07:01;;;;;;;20.35;8.05;;;10.30;99.90;;;;;;5032945;28;20112;-73
2021/12/29 11:09:33;;;;;;;17.00;6.53;;;10.30;99.90;;;;;;5033524;28;20100;-76
2021/12/29 11:12:07;;;;;;;14.30;6.55;;;10.20;99.90;;;;;;5033300;28;20034;-75
2021/12/29 11:14:34;;;;;;;15.60;6.28;;;10.20;99.90;;;;;;5033077;28;20048;-75
2021/12/29 11:17:12;;;;;;;12.57;5.63;;;10.20;99.90;;;;;;5023585;28;20040;-75
2021/12/29 11:19:43;;;;;;;8.95;4.78;;;10.20;99.90;;;;;;5033267;28;20029;-73
2021/12/29 11:22:09;;;;;;;13.15;5.70;;;10.20;99.90;;;;;;5033178;28;20463;-73
2021/12/29 11:24:35;;;;;;;19.25;6.57;;;10.20;99.90;;;;;;5033266;28;20053;-74
2021/12/29 11:27:12;;;;;;;15.95;6.13;;;10.20;99.90;;;;;;5033051;28;20614;-75
2021/12/29 11:29:53;;;;;;;17.23;6.28;;;10.20;99.90;;;;;;5032910;28;20048;-75
2021/12/29 11:32:40;;;;;;;13.40;6.03;;;10.20;99.90;;;;;;5032866;28;20021;-76
2021/12/29 11:35:13;;;;;;;11.23;5.50;;;10.20;99.90;;;;;;5030729;28;20052;-77
2021/12/29 11:37:43;;;;;;;14.82;6.90;;;10.30;99.90;;;;;;5032908;28;20029;-75
2021/12/29 11:40:11;;;;;;;14.50;4.85;;;10.20;99.90;;;;;;5032733;28;20040;-74
2021/12/29 11:42:37;;;;;;;16.98;6.05;;;10.20;99.90;;;;;;5033252;28;20033;-77
2021/12/29 11:45:05;;;;;;;16.98;6.82;;;10.10;99.90;;;;;;5032945;28;20441;-74
2021/12/29 11:47:30;;;;;;;15.75;6.07;;;10.10;99.90;;;;;;5033293;28;20053;-75
2021/12/29 11:49:56;;;;;;;18.35;7.10;;;10.20;99.90;;;;;;5033368;28;20434;-73
2021/12/29 11:52:59;;;;;;;13.95;5.65;;;10.10;99.90;;;;;;5032414;28;20076;-75
2021/12/29 11:55:30;;;;;;;17.75;5.80;;;10.10;99.90;;;;;;5032379;28;20104;-76
2021/12/29 11:58:14;;;;;;;15.48;5.63;;;10.00;99.90;;;;;;5031256;28;20025;-75
2021/12/29 12:00:42;;;;;;;13.02;5.22;;;10.00;99.90;;;;;;5032853;28;20029;-75
2021/12/29 12:03:14;;;;;;;19.52;6.35;;;10.00;99.90;;;;;;5032555;28;20247;-74
2021/12/29 12:05:42;;;;;;;14.30;5.90;;;9.90;99.90;;;;;;5032791;28;20021;-72
2021/12/29 12:08:30;;;;;;;14.82;5.57;;;10.00;99.90;;;;;;5032662;28;20034;-74
2021/12/29 12:11:00;;;;;;;17.48;6.43;;;9.90;99.90;;;;;;5032321;28;20064;-73
2021/12/29 12:13:29;;;;;;;14.32;6.63;;;9.90;99.90;;;;;;5032400;28;20049;-73
2021/12/29 12:16:11;;;;;;;13.60;5.65;;;9.90;99.90;;;;;;5030981;28;20053;-73
2021/12/29 12:18:55;;;;;;;14.70;6.95;;;9.90;99.90;;;;;;5032301;28;20076;-73
2021/12/29 12:21:23;;;;;;;14.70;6.40;;;9.90;99.90;;;;;;5032509;28;20034;-73
2021/12/29 12:23:49;;;;;;;14.38;5.75;;;9.80;99.90;;;;;;5032136;28;20099;-73
2021/12/29 12:26:18;;;;;;;17.52;6.93;;;9.80;99.90;;;;;;5032538;28;20029;-74
2021/12/29 12:28:49;;;;;;;19.25;7.30;;;9.80;99.90;;;;;;5032314;28;20418;-73
2021/12/29 12:31:24;;;;;;;19.37;7.07;;;9.80;99.90;;;;;;5032747;28;20018;-74
2021/12/29 12:33:50;;;;;;;16.63;6.95;;;9.90;99.90;;;;;;5032398;28;20470;-73
2021/12/29 12:36:16;;;;;;;20.25;7.43;;;9.90;99.90;;;;;;5032234;28;20108;-73
2021/12/29 12:38:43;;;;;;;22.35;8.85;;;9.90;99.90;;;;;;5032174;28;20105;-73
2021/12/29 12:41:16;;;;;;;20.33;8.63;;;9.90;99.90;;;;;;5032513;28;20382;-73
2021/12/29 12:44:00;;;;;;;17.70;8.07;;;9.90;99.90;;;;;;5025599;28;20213;-73
2021/12/29 12:46:30;;;;;;;18.20;8.38;;;9.90;99.90;;;;;;5032238;28;20053;-73
2021/12/29 12:48:55;;;;;;;19.17;7.93;;;9.90;99.90;;;;;;5031804;28;20021;-73